createdAt,value
2018-12-03T00:01:06.862Z,8.90
2018-12-03T00:03:35.587Z,8.97
2018-12-03T00:06:03.558Z,8.20
2018-12-03T00:08:31.490Z,8.33
2018-12-03T00:10:59.425Z,8.53
2018-12-03T00:13:27.373Z,9.30
2018-12-03T00:15:55.345Z,9.43
2018-12-03T00:18:23.874Z,6.47
2018-12-03T00:20:51.844Z,10.53
2018-12-03T00:23:19.861Z,17.00
2018-12-03T00:25:47.817Z,8.83
2018-12-03T00:28:15.858Z,16.90
2018-12-03T00:30:43.781Z,9.03
2018-12-03T00:33:11.718Z,8.20
2018-12-03T00:35:39.693Z,8.13
2018-12-03T00:38:07.646Z,10.70
2018-12-03T00:40:35.594Z,11.37
2018-12-03T00:43:03.597Z,20.07
2018-12-03T00:45:31.537Z,12.87
2018-12-03T00:47:59.498Z,8.10
2018-12-03T00:50:27.457Z,9.83
2018-12-03T00:52:55.408Z,8.87
2018-12-03T00:55:23.370Z,9.30
2018-12-03T00:57:51.382Z,8.13
2018-12-03T01:00:19.513Z,8.93
2018-12-03T01:02:47.500Z,8.63
2018-12-03T01:05:15.473Z,7.47
2018-12-03T01:07:43.407Z,9.53
2018-12-03T01:10:11.367Z,7.50
2018-12-03T01:12:39.320Z,10.23
2018-12-03T01:15:08.557Z,8.90
2018-12-03T01:17:40.374Z,9.07
2018-12-03T01:20:10.564Z,14.00
2018-12-03T01:22:38.617Z,11.53
2018-12-03T01:25:06.894Z,10.93
2018-12-03T01:27:34.889Z,8.50
2018-12-03T01:30:03.016Z,9.07
2018-12-03T01:32:30.953Z,9.47
2018-12-03T01:34:58.887Z,19.87
2018-12-03T01:37:26.850Z,11.00
2018-12-03T01:39:54.793Z,8.37
2018-12-03T01:42:22.779Z,12.03
2018-12-03T01:44:50.837Z,10.13
2018-12-03T01:47:18.791Z,9.67
2018-12-03T01:49:46.728Z,11.07
2018-12-03T01:52:14.707Z,8.93
2018-12-03T01:54:42.704Z,8.37
2018-12-03T01:59:44.964Z,12.27
2018-12-03T02:02:12.913Z,10.00
2018-12-03T02:04:40.876Z,7.77
2018-12-03T02:07:08.833Z,8.83
2018-12-03T02:09:36.785Z,17.00
2018-12-03T02:12:04.809Z,12.43
2018-12-03T02:14:32.733Z,9.00
2018-12-03T02:17:00.693Z,7.93
2018-12-03T02:19:35.322Z,6.63
2018-12-03T02:22:03.244Z,7.50
2018-12-03T02:24:31.225Z,6.03
2018-12-03T02:26:59.224Z,6.60
2018-12-03T02:29:27.154Z,13.80
2018-12-03T02:31:55.122Z,14.40
2018-12-03T02:34:23.097Z,12.47
2018-12-03T02:36:51.037Z,11.40
2018-12-03T02:39:18.989Z,10.00
2018-12-03T02:41:46.947Z,8.53
2018-12-03T02:44:15.237Z,8.47
2018-12-03T02:46:43.257Z,7.10
2018-12-03T02:49:11.224Z,7.47
2018-12-03T02:51:39.183Z,6.93
2018-12-03T02:54:07.117Z,7.97
2018-12-03T02:56:35.083Z,5.97
2018-12-03T02:59:03.041Z,5.57
2018-12-03T03:01:30.978Z,6.83
2018-12-03T03:04:05.998Z,7.20
2018-12-03T03:06:33.925Z,5.43
2018-12-03T03:09:01.877Z,6.23
2018-12-03T03:11:29.840Z,6.23
2018-12-03T03:13:57.959Z,5.40
2018-12-03T03:16:26.090Z,8.40
2018-12-03T03:18:54.373Z,7.77
2018-12-03T03:21:22.619Z,6.13
2018-12-03T03:23:50.789Z,8.40
2018-12-03T03:26:18.939Z,7.80
2018-12-03T03:28:47.041Z,8.83
2018-12-03T03:31:15.293Z,6.40
2018-12-03T03:33:43.325Z,5.93
2018-12-03T03:36:11.337Z,8.77
2018-12-03T03:38:39.345Z,7.60
2018-12-03T03:41:07.334Z,7.07
2018-12-03T03:43:35.310Z,9.20
2018-12-03T03:46:03.281Z,6.70
2018-12-03T03:48:31.207Z,7.83
2018-12-03T03:50:59.173Z,7.43
2018-12-03T03:53:27.154Z,7.40
2018-12-03T03:55:55.141Z,8.90
2018-12-03T03:58:23.368Z,8.57
2018-12-03T04:00:51.303Z,9.23
2018-12-03T04:03:19.217Z,8.50
2018-12-03T04:05:47.318Z,7.27
2018-12-03T04:08:15.246Z,8.53
2018-12-03T04:10:43.183Z,10.43
2018-12-03T04:13:11.181Z,9.33
2018-12-03T04:15:39.263Z,13.83
2018-12-03T04:18:07.124Z,9.23
2018-12-03T04:20:38.773Z,11.83
2018-12-03T04:23:06.714Z,9.83
2018-12-03T04:25:34.645Z,10.40
2018-12-03T04:28:02.615Z,11.03
2018-12-03T04:30:30.580Z,11.67
2018-12-03T04:32:58.529Z,13.17
2018-12-03T04:35:34.596Z,11.37
2018-12-03T04:38:02.606Z,13.73
2018-12-03T04:40:30.669Z,11.80
2018-12-03T04:42:58.639Z,11.57
2018-12-03T04:45:26.569Z,12.10
2018-12-03T04:47:54.573Z,10.80
2018-12-03T04:50:22.565Z,12.83
2018-12-03T04:52:50.536Z,11.77
2018-12-03T04:55:20.073Z,15.37
2018-12-03T04:57:48.149Z,11.93
2018-12-03T05:00:17.362Z,12.63
2018-12-03T05:02:46.464Z,10.40
2018-12-03T05:05:14.446Z,10.63
2018-12-03T05:07:42.375Z,14.53
2018-12-03T05:10:12.525Z,11.83
2018-12-03T05:12:41.338Z,13.03
2018-12-03T05:15:10.615Z,12.53
2018-12-03T05:17:38.806Z,14.17
2018-12-03T05:20:10.925Z,15.00
2018-12-03T05:22:39.081Z,12.90
2018-12-03T05:25:08.591Z,11.17
2018-12-03T05:27:36.522Z,11.83
2018-12-03T05:30:08.570Z,10.50
2018-12-03T05:32:36.544Z,16.00
2018-12-03T05:35:06.346Z,13.40
2018-12-03T05:37:34.401Z,11.47
2018-12-03T05:40:02.357Z,8.90
2018-12-03T05:42:30.309Z,11.23
2018-12-03T05:44:58.409Z,11.03
2018-12-03T05:47:26.397Z,13.37
2018-12-03T05:49:54.412Z,13.37
2018-12-03T05:52:25.552Z,12.30
2018-12-03T05:54:53.577Z,10.97
2018-12-03T05:57:21.529Z,10.90
2018-12-03T05:59:49.532Z,11.00
2018-12-03T06:02:17.462Z,11.00
2018-12-03T06:04:45.400Z,14.97
2018-12-03T06:09:46.858Z,10.77
2018-12-03T06:12:14.798Z,12.10
2018-12-03T06:14:42.729Z,11.83
2018-12-03T06:17:10.802Z,9.90
2018-12-03T06:19:38.745Z,14.63
2018-12-03T06:22:06.677Z,8.93
2018-12-03T06:24:34.699Z,12.00
2018-12-03T06:27:02.632Z,12.40
2018-12-03T06:29:30.626Z,10.07
2018-12-03T06:31:58.625Z,12.63
2018-12-03T06:34:26.629Z,14.73
2018-12-03T06:36:54.607Z,10.03
2018-12-03T06:39:22.544Z,13.37
2018-12-03T06:41:50.582Z,10.53
2018-12-03T06:44:18.509Z,10.53
2018-12-03T06:46:46.493Z,10.53
2018-12-03T06:49:14.437Z,13.40
2018-12-03T06:51:42.376Z,11.47
2018-12-03T06:54:10.376Z,12.57
2018-12-03T06:56:38.369Z,11.90
2018-12-03T06:59:06.389Z,12.03
2018-12-03T07:01:34.378Z,9.50
2018-12-03T07:04:02.439Z,14.07
2018-12-03T07:06:30.386Z,11.20
2018-12-03T07:09:01.793Z,10.03
2018-12-03T07:11:29.742Z,10.40
2018-12-03T07:13:57.673Z,10.30
2018-12-03T07:16:25.767Z,11.90
2018-12-03T07:18:53.709Z,14.03
2018-12-03T07:21:21.642Z,11.50
2018-12-03T07:23:52.784Z,10.40
2018-12-03T07:26:20.716Z,10.07
2018-12-03T07:28:48.682Z,11.43
2018-12-03T07:31:16.717Z,12.37
2018-12-03T07:33:44.655Z,11.30
2018-12-03T07:36:12.598Z,9.97
2018-12-03T07:38:43.700Z,14.10
2018-12-03T07:41:11.621Z,13.27
2018-12-03T07:43:39.645Z,15.03
2018-12-03T07:46:07.619Z,15.63
2018-12-03T07:48:35.744Z,11.23
2018-12-03T07:51:03.688Z,12.40
2018-12-03T07:53:31.623Z,14.17
2018-12-03T07:55:59.586Z,12.27
2018-12-03T07:58:27.517Z,13.63
2018-12-03T08:00:56.987Z,11.07
2018-12-03T08:03:25.102Z,15.23
2018-12-03T08:05:53.410Z,15.20
2018-12-03T08:08:21.340Z,14.63
2018-12-03T08:10:51.961Z,14.97
2018-12-03T08:13:21.106Z,14.23
2018-12-03T08:15:49.053Z,13.10
2018-12-03T08:18:19.484Z,12.97
2018-12-03T08:20:54.969Z,11.60
2018-12-03T08:23:27.395Z,13.17
2018-12-03T08:25:55.466Z,12.63
2018-12-03T08:28:23.419Z,14.13
2018-12-03T08:30:51.345Z,14.57
2018-12-03T08:33:19.397Z,11.30
2018-12-03T08:35:47.330Z,13.43
2018-12-03T08:38:15.329Z,12.90
2018-12-03T08:40:43.346Z,11.93
2018-12-03T08:43:11.278Z,12.73
2018-12-03T08:45:39.350Z,11.30
2018-12-03T08:48:07.326Z,13.17
2018-12-03T08:50:35.292Z,14.30
2018-12-03T08:53:36.692Z,12.37
2018-12-03T08:56:05.280Z,9.50
2018-12-03T08:58:33.338Z,7.93
2018-12-03T09:01:06.856Z,14.60
2018-12-03T09:03:35.304Z,12.73
2018-12-03T09:06:08.162Z,9.43
2018-12-03T09:08:36.227Z,10.03
2018-12-03T09:11:04.257Z,11.77
2018-12-03T09:13:32.396Z,11.27
2018-12-03T09:16:01.463Z,9.67
2018-12-03T09:18:34.636Z,9.57
2018-12-03T09:21:08.548Z,10.30
2018-12-03T09:23:36.657Z,9.27
2018-12-03T09:26:04.948Z,16.03
2018-12-03T09:28:34.555Z,11.20
2018-12-03T09:31:02.857Z,9.87
2018-12-03T09:33:31.209Z,8.87
2018-12-03T09:35:59.264Z,10.33
2018-12-03T09:38:27.305Z,8.87
2018-12-03T09:41:00.440Z,9.70
2018-12-03T09:43:29.765Z,12.27
2018-12-03T09:45:57.917Z,7.80
2018-12-03T09:48:26.025Z,7.73
2018-12-03T09:50:54.045Z,8.43
2018-12-03T09:53:22.164Z,8.40
2018-12-03T09:55:53.903Z,7.13
2018-12-03T09:58:23.281Z,10.97
2018-12-03T10:00:51.321Z,7.40
2018-12-03T10:03:26.066Z,10.87
2018-12-03T10:05:56.817Z,11.43
2018-12-03T10:08:29.217Z,14.13
2018-12-03T10:11:03.104Z,8.20
2018-12-03T10:13:32.198Z,7.73
2018-12-03T10:16:00.232Z,10.07
2018-12-03T10:18:28.407Z,8.07
2018-12-03T10:20:57.984Z,7.93
2018-12-03T10:23:26.011Z,6.03
2018-12-03T10:25:57.500Z,6.47
2018-12-03T10:28:25.854Z,4.87
2018-12-03T10:30:55.475Z,6.33
2018-12-03T10:33:33.711Z,5.30
2018-12-03T10:36:04.054Z,6.50
2018-12-03T10:38:33.867Z,8.80
2018-12-03T10:41:07.963Z,6.37
2018-12-03T10:43:35.985Z,9.03
2018-12-03T10:46:04.101Z,5.27
2018-12-03T10:48:32.126Z,5.50
2018-12-03T10:51:00.155Z,7.70
2018-12-03T10:53:30.795Z,5.80
2018-12-03T10:55:58.896Z,6.87
2018-12-03T10:58:30.764Z,8.27
2018-12-03T11:01:10.368Z,9.37
2018-12-03T11:03:43.970Z,11.90
2018-12-03T11:06:17.009Z,6.47
2018-12-03T11:08:45.700Z,5.77
2018-12-03T11:11:13.882Z,4.63
2018-12-03T11:13:42.002Z,4.97
2018-12-03T11:16:17.290Z,5.67
2018-12-03T11:18:49.047Z,5.40
2018-12-03T11:21:17.326Z,4.53
2018-12-03T11:23:45.437Z,6.40
2018-12-03T11:26:13.532Z,7.07
2018-12-03T11:28:44.113Z,4.77
2018-12-03T11:31:20.213Z,6.70
2018-12-03T11:33:48.436Z,6.13
2018-12-03T11:36:21.368Z,8.07
2018-12-03T11:39:11.553Z,3.83
2018-12-03T11:41:39.838Z,4.67
2018-12-03T11:44:07.978Z,4.93
2018-12-03T11:46:36.054Z,4.03
2018-12-03T11:49:04.324Z,3.87
2018-12-03T11:51:32.681Z,5.27
2018-12-03T11:54:00.786Z,3.87
2018-12-03T11:56:28.879Z,10.20
2018-12-03T11:58:56.938Z,3.63
2018-12-03T12:01:25.177Z,4.00
2018-12-03T12:03:53.305Z,3.53
2018-12-03T12:06:21.373Z,4.83
2018-12-03T12:08:49.495Z,3.87
2018-12-03T12:11:28.075Z,4.33
2018-12-03T12:13:56.207Z,3.90
2018-12-03T12:16:24.270Z,3.47
2018-12-03T12:18:52.338Z,3.97
2018-12-03T12:21:20.498Z,4.90
2018-12-03T12:23:48.619Z,2.57
2018-12-03T12:26:16.743Z,4.23
2018-12-03T12:28:44.887Z,5.13
2018-12-03T12:31:13.149Z,6.63
2018-12-03T12:33:41.236Z,3.90
2018-12-03T12:36:09.370Z,3.90
2018-12-03T12:38:37.452Z,6.47
2018-12-03T12:41:05.616Z,6.70
2018-12-03T12:43:36.865Z,3.27
2018-12-03T12:46:08.732Z,6.87
2018-12-03T12:48:36.764Z,3.10
2018-12-03T12:51:04.868Z,4.03
2018-12-03T12:53:32.959Z,3.87
2018-12-03T12:56:01.638Z,8.30
2018-12-03T12:58:29.667Z,3.23
2018-12-03T13:00:57.787Z,5.10
2018-12-03T13:03:25.974Z,6.63
2018-12-03T13:05:54.156Z,3.87
2018-12-03T13:08:22.206Z,4.07
2018-12-03T13:10:50.316Z,3.50
2018-12-03T13:13:18.351Z,3.40
2018-12-03T13:15:46.446Z,6.40
2018-12-03T13:18:14.777Z,5.20
2018-12-03T13:20:42.793Z,4.93
2018-12-03T13:23:10.846Z,3.23
2018-12-03T13:25:38.933Z,5.60
2018-12-03T13:28:07.015Z,4.83
2018-12-03T13:30:35.183Z,6.43
2018-12-03T13:33:03.248Z,7.27
2018-12-03T13:35:31.296Z,8.90
2018-12-03T13:37:59.359Z,8.10
2018-12-03T13:40:27.435Z,7.63
2018-12-03T13:42:55.497Z,5.50
2018-12-03T13:45:25.253Z,5.70
2018-12-03T13:47:54.952Z,7.00
2018-12-03T13:50:22.981Z,7.53
2018-12-03T13:52:51.080Z,5.83
2018-12-03T13:55:20.093Z,6.60
2018-12-03T13:57:48.109Z,9.10
2018-12-03T14:00:20.698Z,9.57
2018-12-03T14:03:08.439Z,8.07
2018-12-03T14:05:47.313Z,12.07
2018-12-03T14:08:21.277Z,12.23
2018-12-03T14:10:58.734Z,8.20
2018-12-03T14:14:37.239Z,9.90
2018-12-03T14:18:21.612Z,11.27
2018-12-03T14:20:50.767Z,9.10
2018-12-03T14:23:22.743Z,10.47
2018-12-03T14:25:50.845Z,11.13
2018-12-03T14:28:18.868Z,13.60
2018-12-03T14:30:46.925Z,9.63
2018-12-03T14:33:15.013Z,11.27
2018-12-03T14:35:43.853Z,16.67
2018-12-03T14:38:12.116Z,8.07
2018-12-03T14:40:40.117Z,12.67
2018-12-03T14:43:08.293Z,14.80
2018-12-03T14:45:36.340Z,9.93
2018-12-03T14:48:04.401Z,7.80
2018-12-03T14:50:32.465Z,9.83
2018-12-03T14:53:00.538Z,15.67
2018-12-03T14:55:28.558Z,8.03
2018-12-03T14:57:56.658Z,6.47
2018-12-03T15:00:24.705Z,7.10
2018-12-03T15:02:52.757Z,9.50
2018-12-03T15:05:20.800Z,9.90
2018-12-03T15:07:48.846Z,9.60
2018-12-03T15:10:16.869Z,11.10
2018-12-03T15:12:44.923Z,7.77
2018-12-03T15:15:12.937Z,9.17
2018-12-03T15:17:44.551Z,9.83
2018-12-03T15:20:12.708Z,10.23
2018-12-03T15:22:40.783Z,11.87
2018-12-03T15:25:10.969Z,11.83
2018-12-03T15:27:39.117Z,8.27
2018-12-03T15:30:08.853Z,9.90
2018-12-03T15:32:37.153Z,9.43
2018-12-03T15:35:07.287Z,10.77
2018-12-03T15:37:35.322Z,7.80
2018-12-03T15:40:04.236Z,10.13
2018-12-03T15:42:32.390Z,11.67
2018-12-03T15:45:00.457Z,11.27
2018-12-03T15:47:28.501Z,9.93
2018-12-03T15:49:56.574Z,8.53
2018-12-03T15:52:24.667Z,10.53
2018-12-03T15:54:52.673Z,10.20
2018-12-03T15:57:20.996Z,11.57
2018-12-03T15:59:49.033Z,12.63
2018-12-03T16:02:17.039Z,8.53
2018-12-03T16:04:45.074Z,11.33
2018-12-03T16:07:13.096Z,9.40
2018-12-03T16:09:41.206Z,5.37
2018-12-03T16:12:09.318Z,11.77
2018-12-03T16:14:37.379Z,9.13
2018-12-03T16:17:05.431Z,13.07
2018-12-03T16:19:33.651Z,9.33
2018-12-03T16:22:01.681Z,10.63
2018-12-03T16:24:29.797Z,7.53
2018-12-03T16:26:57.868Z,14.20
2018-12-03T16:29:25.949Z,11.33
2018-12-03T16:31:54.194Z,15.53
2018-12-03T16:34:22.293Z,12.00
2018-12-03T16:36:50.362Z,12.10
2018-12-03T16:39:18.449Z,10.43
2018-12-03T16:41:46.527Z,7.27
2018-12-03T16:44:14.573Z,11.87
2018-12-03T16:46:42.713Z,9.80
2018-12-03T16:49:10.753Z,10.43
2018-12-03T16:51:38.803Z,8.97
2018-12-03T16:54:06.831Z,13.00
2018-12-03T16:56:34.885Z,10.67
2018-12-03T16:59:02.919Z,10.67
2018-12-03T17:01:30.973Z,12.50
2018-12-03T17:03:59.115Z,11.00
2018-12-03T17:06:27.477Z,13.23
2018-12-03T17:08:55.606Z,10.90
2018-12-03T17:11:23.655Z,7.90
2018-12-03T17:13:51.745Z,10.93
2018-12-03T17:16:19.779Z,10.23
2018-12-03T17:18:47.852Z,11.27
2018-12-03T17:21:23.801Z,11.97
2018-12-03T17:23:58.298Z,11.83
2018-12-03T17:26:26.353Z,15.60
2018-12-03T17:28:54.449Z,9.50
2018-12-03T17:31:22.489Z,12.17
2018-12-03T17:33:50.781Z,15.57
2018-12-03T17:36:18.795Z,12.17
2018-12-03T17:38:46.813Z,13.43
2018-12-03T17:41:14.911Z,13.33
2018-12-03T17:43:42.929Z,10.37
2018-12-03T17:46:10.996Z,10.47
2018-12-03T17:48:42.405Z,13.03
2018-12-03T17:51:10.493Z,15.60
2018-12-03T17:53:38.517Z,11.50
2018-12-03T17:56:06.510Z,8.67
2018-12-03T17:58:34.771Z,16.27
2018-12-03T18:01:02.829Z,21.33
2018-12-03T18:03:30.901Z,17.23
2018-12-03T18:05:59.921Z,13.43
2018-12-03T18:08:28.066Z,12.10
2018-12-03T18:10:56.152Z,10.00
2018-12-03T18:13:24.346Z,15.63
2018-12-03T18:15:53.074Z,12.13
2018-12-03T18:18:21.233Z,16.40
2018-12-03T18:20:49.329Z,12.50
2018-12-03T18:23:17.417Z,13.40
2018-12-03T18:25:45.470Z,15.60
2018-12-03T18:28:13.745Z,14.27
2018-12-03T18:30:41.786Z,14.17
2018-12-03T18:33:09.854Z,12.63
2018-12-03T18:35:37.926Z,12.03
2018-12-03T18:38:05.965Z,14.30
2018-12-03T18:40:34.079Z,13.77
2018-12-03T18:43:02.161Z,10.97
2018-12-03T18:45:30.286Z,10.17
2018-12-03T18:47:58.445Z,10.93
2018-12-03T18:50:30.104Z,13.70
2018-12-03T18:52:58.141Z,11.40
2018-12-03T18:55:26.166Z,11.50
2018-12-03T18:57:58.645Z,12.83
2018-12-03T19:00:26.677Z,10.63
2018-12-03T19:02:54.700Z,13.17
2018-12-03T19:05:22.761Z,11.03
2018-12-03T19:07:50.806Z,10.43
2018-12-03T19:10:18.840Z,14.93
2018-12-03T19:12:46.913Z,16.00
2018-12-03T19:15:15.009Z,14.00
2018-12-03T19:17:43.070Z,15.03
2018-12-03T19:20:14.511Z,11.97
2018-12-03T19:22:42.602Z,12.83
2018-12-03T19:25:10.766Z,14.23
2018-12-03T19:27:38.881Z,11.63
2018-12-03T19:30:10.032Z,13.53
2018-12-03T19:32:38.096Z,12.67
2018-12-03T19:35:06.177Z,11.93
2018-12-03T19:37:34.248Z,15.23
2018-12-03T19:40:02.307Z,11.27
2018-12-03T19:42:31.132Z,10.37
2018-12-03T19:45:02.562Z,11.77
2018-12-03T19:47:30.665Z,11.87
2018-12-03T19:49:58.702Z,12.23
2018-12-03T19:52:26.793Z,10.77
2018-12-03T19:54:55.586Z,15.40
2018-12-03T19:57:28.310Z,9.27
2018-12-03T20:00:00.927Z,8.13
2018-12-03T20:02:26.925Z,10.77
2018-12-03T20:04:54.975Z,10.80
2018-12-03T20:07:22.993Z,13.17
2018-12-03T20:09:54.946Z,12.53
2018-12-03T20:12:22.961Z,10.03
2018-12-03T20:14:51.037Z,8.10
2018-12-03T20:17:27.466Z,10.67
2018-12-03T20:19:55.554Z,10.50
2018-12-03T20:22:26.097Z,9.20
2018-12-03T20:24:54.275Z,11.97
2018-12-03T20:27:43.956Z,7.50
2018-12-03T20:30:29.053Z,10.27
2018-12-03T20:33:01.910Z,11.47
2018-12-03T20:35:40.247Z,12.37
2018-12-03T20:38:15.710Z,10.47
2018-12-03T20:40:50.368Z,10.00
2018-12-03T20:43:21.228Z,14.37
2018-12-03T20:45:58.881Z,8.40
2018-12-03T20:48:38.684Z,8.60
2018-12-03T20:51:41.431Z,8.87
2018-12-03T20:54:09.505Z,7.63
2018-12-03T20:56:37.529Z,8.60
2018-12-03T20:59:05.622Z,9.40
2018-12-03T21:01:37.330Z,9.20
2018-12-03T21:04:05.459Z,8.33
2018-12-03T21:06:33.526Z,7.90
2018-12-03T21:09:01.671Z,8.67
2018-12-03T21:11:29.762Z,12.73
2018-12-03T21:13:57.798Z,9.20
2018-12-03T21:16:26.034Z,10.10
2018-12-03T21:18:54.070Z,10.70
2018-12-03T21:21:22.193Z,9.30
2018-12-03T21:23:50.325Z,11.93
2018-12-03T21:26:18.391Z,6.57
2018-12-03T21:28:46.433Z,6.97
2018-12-03T21:31:14.481Z,9.40
2018-12-03T21:33:42.509Z,8.57
2018-12-03T21:36:10.562Z,7.10
2018-12-03T21:38:38.658Z,7.40
2018-12-03T21:41:06.709Z,9.43
2018-12-03T21:43:34.737Z,10.10
2018-12-03T21:46:04.062Z,8.97
2018-12-03T21:48:32.098Z,7.43
2018-12-03T21:51:00.203Z,12.83
2018-12-03T21:53:28.664Z,6.33
2018-12-03T21:55:56.702Z,8.90
2018-12-03T21:58:24.848Z,9.07
2018-12-03T22:00:52.946Z,6.40
2018-12-03T22:03:20.970Z,8.67
2018-12-03T22:05:48.985Z,9.80
2018-12-03T22:08:17.131Z,7.03
2018-12-03T22:10:45.149Z,8.30
2018-12-03T22:13:13.178Z,8.33
2018-12-03T22:15:41.537Z,6.13
2018-12-03T22:18:09.595Z,6.70
2018-12-03T22:20:37.618Z,10.07
2018-12-03T22:23:12.845Z,7.27
2018-12-03T22:25:40.962Z,9.17
2018-12-03T22:28:08.990Z,10.20
2018-12-03T22:30:37.037Z,12.40
2018-12-03T22:33:05.172Z,8.10
2018-12-03T22:35:33.234Z,7.90
2018-12-03T22:38:01.279Z,7.17
2018-12-03T22:40:29.729Z,6.83
2018-12-03T22:42:57.769Z,9.33
2018-12-03T22:45:25.798Z,8.73
2018-12-03T22:47:53.848Z,12.17
2018-12-03T22:50:21.864Z,9.60
2018-12-03T22:52:49.889Z,9.00
2018-12-03T22:55:18.017Z,9.23
2018-12-03T22:57:46.037Z,5.67
2018-12-03T23:00:20.989Z,8.03
2018-12-03T23:02:49.030Z,7.90
2018-12-03T23:05:17.093Z,8.90
2018-12-03T23:07:45.125Z,5.40
2018-12-03T23:10:13.294Z,7.13
2018-12-03T23:12:41.341Z,6.17
2018-12-03T23:15:09.406Z,7.73
2018-12-03T23:17:37.686Z,8.47
2018-12-03T23:20:06.167Z,9.00
2018-12-03T23:22:34.203Z,5.67
2018-12-03T23:25:02.414Z,7.77
2018-12-03T23:27:30.478Z,6.53
2018-12-03T23:29:58.496Z,5.70
2018-12-03T23:32:26.548Z,8.20
2018-12-03T23:34:54.896Z,9.33
2018-12-03T23:37:22.990Z,7.53
2018-12-03T23:39:51.045Z,7.03
2018-12-03T23:42:19.366Z,6.03
2018-12-03T23:44:47.406Z,5.97
2018-12-03T23:47:15.537Z,6.27
2018-12-03T23:49:43.586Z,7.77
2018-12-03T23:52:11.652Z,5.87
2018-12-03T23:54:39.681Z,4.50
2018-12-03T23:57:07.862Z,6.57
2018-12-03T23:59:35.906Z,6.80
